Archival Weather

Chicago O'Hare International

Chicago, Illinois (KORD)

Report from: Thursday, December 29, 2022 12:51 PM CST
Current time: Friday, June 21, 2024 3:49 AM CDT

Current weather – Weather history – Daily summaries
Weather forecast

Temperature13.9°C (57.0°F)
Dew point10.6°C (51.1°F)
Winds 12 kts (6.2 m/s, 13.8 mph) South-Southwest (200°)
Wind gusts 26 kts (13.4 m/s, 29.9 mph)
Peak wind 26 kts (13.4 m/s, 29.9 mph) South (190°) at 18:45
Visibility10 mi. (16.1 km)
Clouds Ceiling: Broken clouds 1,800 ft. (549 m)
Overcast 2,400 ft. (732 m)
Altimeter29.79 in.Hg (1009 mB)
Relative humidity81 %
Density altitude194 ft. (59 m)
Sea-level pressure100.9 kPa (1009 mB, 29.80 in.Hg)
Remarks Automated weather observing station with precipitation discriminator
Flight conditions Marginal Visual Meteorological Conditions
Raw dataKORD 291851Z 20012G26KT 10SM BKN018 OVC024 14/11 A2979 RMK AO2 PK WND 19026/1845 SLP090 T01390106
An error has occurred. This application may no longer respond until reloaded. Reload 🗙